Tiempo atmosférico en la estación meteorológica de Garganta De La Olla, Cáceres (690 m.)



Fecha
DESCASC
Temp. máxima en grados centígrados (hora)
DESCASC
Temp. mínima en grados centígrados (hora)
DESCASC
Temp. media en grados centígrados
DESCASC
Racha de viento máxima en m/sg (hora)
DESCASC
Velocidad máxima media en intervalos de 10 minutos(hora)
DESCASC
Precipitaciones diarias en mm
DESCASC
Precipitaciones de 00:00 a 06:00 en mm
DESCASC
Precipitaciones de 06:00 a 12:00 en mm
DESCASC
Precipitaciones de 12:00 a 18:00 en mm
DESCASC
Precipitaciones de 18:00 a 24:00 en mm
DESCASC

Gráficas

Temp. máximas Temp. mínimas Temp. medias Precipitaciones Rachas de viento máximas Velocidades máximas media en intervalos de 10 minutos

Datos horarios

Fecha y hora oficial Temperatura (ºC) Velocidad del viento (km/h) Dirección del viento Racha (km/h) Dirección de racha Precipitación (mm) Presión (hPa) Tendencia (hPa) Humedad (%)
2021-01-17 23:00:00 6.1 3 Noroeste 10 Norte 0 -- -- 44
2021-01-17 22:00:00 5.5 3 Oeste 9 Sudoeste 0 -- -- 61
2021-01-17 21:00:00 6.8 0 Calma 6 Sudoeste 0 -- -- 60
2021-01-17 20:00:00 7.3 0 Calma 3 Norte 0 -- -- 58
2021-01-17 19:00:00 7.1 2 Oeste 11 Noroeste 0 -- -- 44
2021-01-17 18:00:00 7.5 0 Calma 2 Sudeste 0 -- -- 65
2021-01-17 17:00:00 10.6 0 Calma 5 Sur 0 -- -- 55
2021-01-17 16:00:00 11.6 4 Sur 9 Sur 0 -- -- 53
2021-01-17 15:00:00 10.8 5 Sudeste 10 Sur 0 -- -- 54
2021-01-17 14:00:00 10.3 8 Sur 12 Sur 0 -- -- 53
2021-01-17 13:00:00 9.5 7 Sudeste 12 Sudeste 0 -- -- 57
2021-01-17 12:00:00 8 4 Sudeste 8 Sudeste 0 -- -- 58
2021-01-17 11:00:00 6.9 2 Sudeste 5 Este 0 -- -- 60
2021-01-17 10:00:00 6.5 0 Calma 4 Sudoeste 0 -- -- 43
2021-01-17 09:00:00 3.8 0 Calma 4 Norte 0 -- -- 43
2021-01-17 08:00:00 2.5 0 Calma 3 Sur 0 -- -- 68
2021-01-17 07:00:00 3.2 0 Calma 5 Sudoeste 0 -- -- 53
2021-01-17 06:00:00 5.3 0 Calma 4 Noroeste 0 -- -- 35
2021-01-17 05:00:00 5.5 2 Norte 4 Norte 0 -- -- 37
2021-01-17 04:00:00 6.3 3 Noroeste 7 Noroeste 0 -- -- 35
2021-01-17 03:00:00 5 0 Calma 4 Sudoeste 0 -- -- 56
2021-01-17 02:00:00 6.3 0 Calma 5 Sur 0 -- -- 41
2021-01-17 01:00:00 7.5 3 Noroeste 9 Noroeste 0 -- -- 37
2021-01-17 00:00:00 7.1 3 Norte 5 Noroeste 0 -- -- 39
2021-01-16 23:00:00 7.5 2 Este 8 Noroeste 0 -- -- 39
2021-01-16 22:00:00 8 6 Noroeste 15 Noroeste 0 -- -- 36
2021-01-16 21:00:00 8.3 3 Sudoeste 5 Noroeste 0 -- -- 43
2021-01-16 20:00:00 9.3 2 Sudoeste 12 Noroeste 0 -- -- 40
2021-01-16 19:00:00 9.3 5 Noroeste 11 Noroeste 0 -- -- 40
2021-01-16 18:00:00 9.6 0 Calma 5 Noroeste 0 -- -- 48
2021-01-16 17:00:00 11.9 2 Sur 5 Sur 0 -- -- 47
2021-01-16 16:00:00 11.8 2 Sudeste 10 Sur 0 -- -- 49
2021-01-16 15:00:00 11.4 6 Sur 9 Sudeste 0 -- -- 55
2021-01-16 14:00:00 12 4 Sudeste 10 Sur 0 -- -- 54
2021-01-16 13:00:00 12.4 4 Sudeste 9 Sur 0 -- -- 48
2021-01-16 12:00:00 11.3 3 Este 6 Sudeste 0 -- -- 37
2021-01-16 11:00:00 8.7 0 Calma 4 Sur 0 -- -- 45
2021-01-16 10:00:00 7.2 0 Calma 6 Sur 0 -- -- 38
2021-01-16 09:00:00 4.2 4 Oeste 11 Noroeste 0 -- -- 42
2021-01-16 08:00:00 3.8 0 Calma 6 Sudoeste 0 -- -- 47
2021-01-16 07:00:00 4.5 3 Sudoeste 14 Noroeste 0 -- -- 42
2021-01-16 06:00:00 4.9 2 Sudoeste 13 Noroeste 0 -- -- 41
2021-01-16 05:00:00 4.5 5 Norte 10 Norte 0 -- -- 44
2021-01-16 04:00:00 5.2 2 Sudoeste 8 Noroeste 0 -- -- 41
2021-01-16 03:00:00 4.7 0 Calma 9 Noroeste 0 -- -- 46
2021-01-16 02:00:00 5.2 2 Noroeste 8 Noroeste 0 -- -- 43
2021-01-16 01:00:00 5.9 0 Calma 10 Noroeste 0 -- -- 44
2021-01-16 00:00:00 5.1 5 Oeste 14 Noroeste 0 -- -- 50
2021-01-15 23:00:00 3.8 6 Noroeste 10 Noroeste 0 -- -- 64
2021-01-15 22:00:00 4.8 0 Calma 14 Noroeste 0 -- -- 59
2021-01-15 21:00:00 5.2 0 Calma 8 Sudoeste 0 -- -- 61
2021-01-15 20:00:00 5.8 3 Sudoeste 12 Oeste 0 -- -- 58
2021-01-15 19:00:00 4.8 7 Noroeste 12 Noroeste 0 -- -- 65
2021-01-15 18:00:00 6.5 0 Calma -- -- 0 -- -- 65
2021-01-15 17:00:00 8.5 0 Calma 7 Sur 0 -- -- 58
2021-01-15 16:00:00 9.3 4 Sur 12 Sur 0 -- -- 56
2021-01-15 15:00:00 8.7 6 Sur 12 Sur 0 -- -- 58
2021-01-15 14:00:00 8.6 9 Sur 14 Sur 0 -- -- 59
2021-01-15 13:00:00 8.4 8 Sur 12 Sur 0 -- -- 57
2021-01-15 12:00:00 7.5 5 Sudeste 10 Sudeste 0 -- -- 54
2021-01-15 11:00:00 6 0 Calma 5 Este 0 -- -- 54
2021-01-15 10:00:00 7.1 0 Calma 4 Sudeste 0 -- -- 45
2021-01-15 09:00:00 4.7 4 Noroeste 9 Noroeste 0 -- -- 47
2021-01-15 08:00:00 5.4 0 Calma 3 Norte 0 -- -- 43
2021-01-15 07:00:00 5.6 0 Calma 10 Oeste 0 -- -- 41
2021-01-15 06:00:00 5.2 7 Noroeste 14 Noroeste 0 -- -- 46
2021-01-15 05:00:00 6 3 Norte 6 Noroeste 0 -- -- 42
2021-01-15 04:00:00 6.3 0 Calma 8 Noroeste 0 -- -- 37
2021-01-15 03:00:00 6.6 0 Calma 8 Noroeste 0 -- -- 38
2021-01-15 02:00:00 6.7 2 Oeste 15 Noroeste 0 -- -- 33
2021-01-15 01:00:00 5.6 0 Calma 15 Norte 0 -- -- 33
2021-01-15 00:00:00 2.9 3 Noroeste 8 Sudoeste 0 -- -- 53
2021-01-14 23:00:00 2.8 4 Norte 8 Noroeste 0 -- -- 59
2021-01-14 22:00:00 3.9 3 Sudoeste 6 Sudoeste 0 -- -- 65
2021-01-14 21:00:00 4 0 Calma 4 Noroeste 0 -- -- 61
2021-01-14 20:00:00 4.1 3 Sudeste 6 Noroeste 0 -- -- 61
2021-01-14 19:00:00 4.4 0 Calma 8 Norte 0 -- -- 68
2021-01-14 18:00:00 4.6 0 Calma 5 Sudoeste 0 -- -- 72
2021-01-14 17:00:00 6.9 0 Calma 5 Sudeste 0 -- -- 63
2021-01-14 16:00:00 8 5 Sur 9 Sur 0 -- -- 61
2021-01-14 15:00:00 7.5 5 Sur 9 Sur 0 -- -- 62
2021-01-14 14:00:00 7.7 7 Sur 12 Sur 0 -- -- 60
2021-01-14 13:00:00 6.9 4 Sudeste 12 Sudeste 0 -- -- 60
2021-01-14 12:00:00 5.4 3 Sudeste 8 Sudeste 0 -- -- 63
2021-01-14 11:00:00 3.2 2 Sudeste 8 Sur 0 -- -- 70
2021-01-14 10:00:00 2.9 2 Sur 5 Sur 0 -- -- 61
2021-01-14 09:00:00 0.8 0 Calma 4 Sudoeste 0 -- -- 57
2021-01-14 08:00:00 0.6 0 Calma 2 Sur 0 -- -- 53
2021-01-14 07:00:00 0.6 0 Calma 4 Norte 0 -- -- 54
2021-01-14 06:00:00 0.6 0 Calma 3 Nordeste 0 -- -- 56
2021-01-14 05:00:00 0.5 0 Calma 4 Norte 0 -- -- 58
2021-01-14 04:00:00 0.6 0 Calma 5 Sudoeste 0 -- -- 59
2021-01-14 03:00:00 2.7 2 Sudoeste 3 Sudoeste 0 -- -- 63
2021-01-14 02:00:00 1.7 0 Calma 0 Calma 0 -- -- 64
2021-01-14 01:00:00 1.7 0 Calma 3 Sudoeste 0 -- -- 70
2021-01-14 00:00:00 1.7 0 Calma 3 Norte 0 -- -- 76
2021-01-13 23:00:00 2.1 2 Noroeste 8 Sudoeste 0 -- -- 71
2021-01-13 22:00:00 3.1 2 Sudoeste 4 Sudoeste 0 -- -- 67
2021-01-13 21:00:00 3.4 0 Calma 7 Norte 0 -- -- 59
2021-01-13 20:00:00 1.7 0 Calma 5 Sudoeste 0 -- -- 80
2021-01-13 19:00:00 2.8 4 Sudoeste 6 Sudoeste 0 -- -- 73
2021-01-13 18:00:00 3.7 0 Calma 2 Sur 0 -- -- 72
2021-01-13 17:00:00 6.1 0 Calma 7 Sur 0 -- -- 63
2021-01-13 16:00:00 7.3 4 Sur 8 Sudeste 0 -- -- 61
2021-01-13 15:00:00 6.7 5 Sudeste 8 Sudeste 0 -- -- 62
2021-01-13 14:00:00 6 6 Sudeste 11 Sur 0 -- -- 64
2021-01-13 13:00:00 4.5 3 Sur 9 Sur 0 -- -- 68
2021-01-13 12:00:00 3 6 Sudeste 10 Sudeste 0 -- -- 71
2021-01-13 11:00:00 1.6 2 Este 5 Sudeste 0 -- -- 74
2021-01-13 10:00:00 0.8 0 Calma 3 Sur 0 -- -- 71
2021-01-13 09:00:00 -2 0 Calma 4 Noroeste 0 -- -- 72
2021-01-13 08:00:00 -1.1 0 Calma 3 Sudeste 0 -- -- 69
2021-01-13 07:00:00 -0.1 0 Calma 6 Noroeste 0 -- -- 60
2021-01-13 06:00:00 0.8 0 Calma 5 Sudoeste 0 -- -- 58
2021-01-13 05:00:00 1.8 0 Calma 8 Norte 0 -- -- 51
2021-01-13 04:00:00 0.2 0 Calma 6 Sur 0 -- -- 64
2021-01-13 03:00:00 1.1 0 Calma 6 Sur 0 -- -- 60
2021-01-13 02:00:00 1.3 4 Sur 7 Noroeste 0 -- -- 63
2021-01-13 01:00:00 2.1 5 Noroeste 7 Noroeste 0 -- -- 57
2021-01-13 00:00:00 1.9 3 Noroeste 8 Noroeste 0 -- -- 67
2021-01-12 23:00:00 2.2 0 Calma 4 Noroeste 0 -- -- 72
2021-01-12 22:00:00 2.5 2 Sudoeste 7 Noroeste 0 -- -- 72
2021-01-12 21:00:00 2.1 3 Noroeste 6 Norte 0 -- -- 73
2021-01-12 20:00:00 2 0 Calma 5 Noroeste 0 -- -- 77
2021-01-12 19:00:00 2.2 2 Noroeste 6 Noroeste 0 -- -- 77
2021-01-12 18:00:00 3.4 0 Calma 5 Noroeste 0 -- -- 72
2021-01-12 17:00:00 5.6 4 Sur 8 Sur 0 -- -- 65
2021-01-12 16:00:00 7 5 Sur 9 Sur 0 -- -- 62
2021-01-12 15:00:00 6 5 Sudeste 11 Sur 0 -- -- 64
2021-01-12 14:00:00 5.9 8 Sur 12 Sur 0 -- -- 61
2021-01-12 13:00:00 4.9 4 Sudeste 10 Sur 0 -- -- 61
2021-01-12 12:00:00 3.4 4 Sudeste 9 Sur 0 -- -- 62
2021-01-12 11:00:00 1.6 3 Sudeste 8 Sur 0 -- -- 64
2021-01-12 10:00:00 0.1 2 Este 6 Sur 0 -- -- 68
2021-01-12 09:00:00 -0.6 0 Calma 5 Oeste 0 -- -- 54
2021-01-12 08:00:00 -0.7 0 Calma 3 Sur 0 -- -- 54
2021-01-12 07:00:00 -0.4 0 Calma 5 Noroeste 0 -- -- 52
2021-01-12 06:00:00 -0.1 0 Calma 10 Noroeste 0 -- -- 54
2021-01-12 05:00:00 0.1 3 Sudoeste 8 Noroeste 0 -- -- 56
2021-01-12 04:00:00 0.1 2 Sur 9 Noroeste 0 -- -- 65
2021-01-12 03:00:00 -0.3 3 Noroeste 9 Noroeste 0 -- -- 62
2021-01-12 02:00:00 -0.4 4 Noroeste 8 Noroeste 0 -- -- 63
2021-01-12 01:00:00 0.5 0 Calma 8 Noroeste 0 -- -- 68
2021-01-12 00:00:00 -0.7 8 Noroeste 12 Noroeste 0 -- -- 69
2021-01-11 23:00:00 0 5 Sudoeste 10 Sudoeste 0 -- -- 76
2021-01-11 22:00:00 0.9 0 Calma 14 Noroeste 0 -- -- 75
2021-01-11 21:00:00 0.1 8 Noroeste 13 Noroeste 0 -- -- 78
2021-01-11 20:00:00 0.8 0 Calma 10 Noroeste 0 -- -- 74
2021-01-11 19:00:00 1.3 3 Oeste 6 Oeste 0 -- -- 71
2021-01-11 18:00:00 2.5 4 Sudoeste 7 Sudoeste 0 -- -- 69
2021-01-11 17:00:00 4.7 3 Sur 9 Sur 0 -- -- 60
2021-01-11 16:00:00 6 3 Sur 15 Sudeste 0 -- -- 59
2021-01-11 15:00:00 5.4 10 Sur 18 Sur 0 -- -- 61
2021-01-11 14:00:00 5.1 6 Sur 12 Sudeste 0 -- -- 64
2021-01-11 13:00:00 3.9 5 Sudeste 11 Sudeste 0 -- -- 67
2021-01-11 12:00:00 3 4 Sur 9 Sudeste 0 -- -- 69
2021-01-11 11:00:00 1.8 5 Sudeste 10 Sudeste 0 -- -- 72
2021-01-11 10:00:00 0.2 0 Calma 5 Sur 0 -- -- 77
2021-01-11 09:00:00 -1.9 4 Noroeste 6 Noroeste 0 -- -- 82
2021-01-11 08:00:00 -1.5 2 Sudoeste 9 Noroeste 0 -- -- 81
2021-01-11 07:00:00 -1.3 0 Calma 6 Noroeste 0 -- -- 83
2021-01-11 06:00:00 -1.2 2 Sudoeste 9 Sudoeste 0 -- -- 84
2021-01-11 05:00:00 -0.2 4 Norte 16 Noroeste 0 -- -- 75
2021-01-11 04:00:00 0 2 Noroeste 14 Noroeste 0 -- -- 78
2021-01-11 03:00:00 -1.2 5 Noroeste 10 Noroeste 0 -- -- 86
2021-01-11 02:00:00 -1.3 4 Noroeste 10 Noroeste 0 -- -- 91
2021-01-11 01:00:00 -0.7 3 Sudoeste 12 Noroeste 0 -- -- 91
2021-01-11 00:00:00 0.2 7 Noroeste 13 Noroeste 0 -- -- 83
2021-01-10 23:00:00 -0.1 5 Noroeste 11 Noroeste 0 -- -- 88
2021-01-10 22:00:00 0.1 5 Oeste 12 Sur 0 -- -- 91
2021-01-10 21:00:00 1 4 Noroeste 8 Noroeste 0 -- -- 88
2021-01-10 20:00:00 1.4 2 Sudoeste 12 Noroeste 0 -- -- 87
2021-01-10 19:00:00 1.7 0 Calma 6 Sur 0 -- -- 84
2021-01-10 18:00:00 2.8 4 Sur 8 Sur 0 -- -- 80
2021-01-10 17:00:00 4 4 Sur 17 Sur 0 -- -- 78
2021-01-10 16:00:00 4.5 12 Sudeste 26 Sudeste 0 -- -- 80
2021-01-10 15:00:00 5.6 10 Sudeste 17 Sudeste 0 -- -- 75
2021-01-10 14:00:00 4.2 3 Sudeste 10 Norte 0 -- -- 81
2021-01-10 13:00:00 2.1 2 Nordeste 13 Sur 0 -- -- 92
2021-01-10 12:00:00 2.6 3 Este 8 Sur 0 -- -- 87
2021-01-10 11:00:00 1.4 7 Sur 16 Sur 0.4 -- -- 90
2021-01-10 10:00:00 0.4 3 Norte 15 Noroeste 0.2 -- -- 92
2021-01-10 09:00:00 -1.6 3 Noroeste 12 Noroeste 0 -- -- 94
2021-01-10 08:00:00 -1.7 4 Noroeste 10 Noroeste 0 -- -- 95
2021-01-10 07:00:00 -1.3 4 Noroeste 6 Noroeste 0 -- -- 95
2021-01-10 06:00:00 -1.3 5 Noroeste 9 Noroeste 0 -- -- 95
2021-01-10 05:00:00 -1 3 Noroeste 8 Noroeste 0 -- -- 95
2021-01-10 04:00:00 -0.4 2 Noroeste 13 Noroeste 0 -- -- 94
2021-01-10 03:00:00 0.3 3 Noroeste 11 Sudoeste 0 -- -- 95
2021-01-10 02:00:00 0.5 2 Norte 8 Sur 0 -- -- 96
2021-01-10 01:00:00 0.1 0 Calma 0 Calma 0 -- -- 100
2021-01-10 00:00:00 0.1 0 Calma -- -- 0 -- -- 100
2021-01-09 23:00:00 0.1 0 Calma -- -- 0 -- -- 100
2021-01-09 22:00:00 0 0 Calma -- -- 0 -- -- 100
2021-01-09 21:00:00 0 0 Calma -- -- 0 -- -- 100
2021-01-09 20:00:00 0 0 Calma -- -- 0 -- -- 100
2021-01-09 19:00:00 -0.1 0 Calma -- -- 0 -- -- 100
2021-01-09 18:00:00 0 2 Sur 7 Sur 0 -- -- 99
2021-01-09 17:00:00 0.8 3 Sudeste 10 Sudeste 0 -- -- 98
2021-01-09 16:00:00 0.9 3 Sudeste 8 Sudeste 0 -- -- 100
2021-01-09 15:00:00 1 4 Sudeste 10 Sudeste 0 -- -- 100
2021-01-09 14:00:00 0.5 0 Calma 6 Este 0 -- -- 100
2021-01-09 13:00:00 0.1 0 Calma -- -- 0.2 -- -- 100
2021-01-09 12:00:00 -0.2 0 Calma -- -- 0 -- -- 100
2021-01-09 11:00:00 -0.2 0 Calma -- -- 0.2 -- -- 100
2021-01-09 10:00:00 -0.2 0 Calma -- -- 0 -- -- 100
2021-01-09 09:00:00 -0.1 0 Calma 11 Sudeste 0.2 -- -- 100
2021-01-09 08:00:00 0.5 3 Sudeste 10 Sur 0 -- -- 100
2021-01-09 07:00:00 1 0 Calma 8 Sur 0 -- -- 100
2021-01-09 06:00:00 1.2 0 Calma 8 Sur 0 -- -- 98
2021-01-09 05:00:00 1.4 0 Calma 2 Noroeste 0.2 -- -- 97
2021-01-09 04:00:00 1.4 0 Calma 6 Sudoeste 0.2 -- -- 97
2021-01-09 03:00:00 1.8 3 Sudoeste 10 Sur 0.2 -- -- 95
2021-01-09 02:00:00 1.7 0 Calma 12 Oeste 0 -- -- 96
2021-01-09 01:00:00 1.8 4 Noroeste 9 Oeste 0.6 -- -- 95
2021-01-09 00:00:00 2.1 2 Oeste 23 Sudoeste 0.2 -- -- 93
2021-01-08 23:00:00 2.1 3 Sudoeste 12 Oeste 0.8 -- -- 93
2021-01-08 22:00:00 2 9 Sur 20 Sur 0.8 -- -- 95
2021-01-08 21:00:00 1.9 9 Sudoeste 24 Sur 2 -- -- 95
2021-01-08 20:00:00 1.8 6 Sudoeste 14 Sudoeste 1.4 -- -- 95
2021-01-08 19:00:00 2.2 3 Sudeste 12 Oeste 0.6 -- -- 93
2021-01-08 18:00:00 2.6 5 Sur 19 Sur 0.4 -- -- 90
2021-01-08 17:00:00 3.3 10 Sur 18 Sur 0 -- -- 86
2021-01-08 16:00:00 3.2 8 Sur 33 Sur 0.4 -- -- 88
2021-01-08 15:00:00 3.3 11 Sur 23 Sur 0 -- -- 84
2021-01-08 14:00:00 3.6 9 Sur 28 Sur 0 -- -- 78
2021-01-08 13:00:00 3.7 12 Sur 25 Sur 0 -- -- 72
2021-01-08 12:00:00 3.5 12 Sur 30 Sur 0 -- -- 68
2021-01-08 11:00:00 3.2 11 Sur 28 Sur 0 -- -- 67
2021-01-08 10:00:00 2.6 5 Sudoeste 14 Sudoeste 0 -- -- 63
2021-01-08 09:00:00 1.9 5 Sudoeste 14 Oeste 0 -- -- 64
2021-01-08 08:00:00 1.4 4 Oeste 13 Oeste 0 -- -- 57
2021-01-08 07:00:00 -0.3 3 Este 9 Oeste 0 -- -- 68
2021-01-08 06:00:00 -0.8 4 Norte 7 Noroeste 0 -- -- 72
2021-01-08 05:00:00 -0.1 0 Calma 4 Sudoeste 0 -- -- 72
2021-01-08 04:00:00 -0.3 3 Noroeste 6 Oeste 0 -- -- 75
2021-01-08 03:00:00 -0.1 0 Calma 4 Oeste 0 -- -- 82
2021-01-08 02:00:00 0.1 4 Sudoeste 9 Sur 0 -- -- 78
2021-01-08 01:00:00 0.8 4 Oeste 13 Oeste 0 -- -- 70
2021-01-08 00:00:00 0.6 0 Calma 14 Noroeste 0 -- -- 80
2021-01-07 23:00:00 0.9 0 Calma 8 Sudoeste 0 -- -- 92
2021-01-07 22:00:00 1.1 3 Sudoeste 8 Sudoeste 0 -- -- 93
2021-01-07 21:00:00 1.2 4 Oeste 12 Noroeste 0 -- -- 89
2021-01-07 20:00:00 1 2 Norte 8 Sur 0 -- -- 96
2021-01-07 19:00:00 1 5 Sur 15 Sur 0 -- -- 95
2021-01-07 18:00:00 1.8 6 Sudoeste 10 Sudoeste 0 -- -- 84
2021-01-07 17:00:00 2.7 2 Norte 14 Sur 0 -- -- 81
2021-01-07 16:00:00 3 8 Sudeste 14 Sur 0 -- -- 84
2021-01-07 15:00:00 2.2 2 Sudeste 15 Sur 0 -- -- 87
2021-01-07 14:00:00 3.2 11 Sur 18 Sudeste 0 -- -- 84
2021-01-07 13:00:00 3.2 3 Sur 15 Sur 0 -- -- 75
2021-01-07 12:00:00 2.8 7 Sudoeste 20 Sur 0 -- -- 74
2021-01-07 11:00:00 3.1 5 Sur 17 Sudoeste 0 -- -- 66
2021-01-07 10:00:00 1.6 0 Calma 3 Norte 0 -- -- 66
2021-01-07 09:00:00 0.7 2 Nordeste 10 Noroeste 0 -- -- 68
2021-01-07 08:00:00 0.7 2 Sudoeste 15 Sur 0 -- -- 67
2021-01-07 07:00:00 1.7 6 Sudoeste 23 Sur 0 -- -- 61
2021-01-07 06:00:00 2.3 3 Oeste 25 Este 0 -- -- 56
2021-01-07 05:00:00 1.9 3 Sudoeste 17 Sur 0 -- -- 54
2021-01-07 04:00:00 3.6 3 Sudoeste 15 Sudoeste 0 -- -- 44
2021-01-07 03:00:00 2.7 3 Sudoeste 6 Sur 0 -- -- 44
2021-01-07 02:00:00 3.7 4 Sudoeste 14 Sudoeste 0 -- -- 41
2021-01-07 01:00:00 3.3 5 Sudoeste 13 Sur 0 -- -- 41
2021-01-07 00:00:00 2.9 3 Sudoeste 14 Sudoeste 0 -- -- 48
2021-01-06 23:00:00 2.7 3 Noroeste 10 Sudeste 0 -- -- 53
2021-01-06 22:00:00 2.5 3 Oeste 9 Sudoeste 0 -- -- 58
2021-01-06 21:00:00 2.3 3 Oeste 12 Sudoeste 0 -- -- 59
2021-01-06 20:00:00 2.4 2 Oeste 9 Noroeste 0 -- -- 64
2021-01-06 19:00:00 2.4 5 Noroeste 9 Norte 0 -- -- 66
2021-01-06 18:00:00 3.1 0 Calma 12 Sur 0 -- -- 64
2021-01-06 17:00:00 4 7 Sur 15 Sur 0 -- -- 62
2021-01-06 16:00:00 5 9 Sur 15 Sur 0 -- -- 56
2021-01-06 15:00:00 5.5 6 Sur 17 Sur 0 -- -- 51
2021-01-06 14:00:00 5.2 10 Sur 20 Sudeste 0 -- -- 50
2021-01-06 13:00:00 5.6 8 Sur 20 Sur 0 -- -- 52
2021-01-06 12:00:00 4.3 6 Sudeste 10 Sudeste 0 -- -- 58
2021-01-06 11:00:00 2.5 4 Sudeste 8 Este 0 -- -- 62
2021-01-06 10:00:00 0.2 0 Calma 10 Sudoeste 0 -- -- 69
2021-01-06 09:00:00 -1.8 6 Sudoeste 10 Sudoeste 0 -- -- 74
2021-01-06 08:00:00 -0.8 0 Calma 8 Sudoeste 0 -- -- 70
2021-01-06 07:00:00 0.1 2 Sur 13 Noroeste 0 -- -- 65
2021-01-06 06:00:00 -0.3 4 Noroeste 8 Noroeste 0 -- -- 67
2021-01-06 05:00:00 -0.6 5 Noroeste 14 Noroeste 0 -- -- 70
2021-01-06 04:00:00 -0.4 2 Noroeste 12 Noroeste 0 -- -- 69
2021-01-06 03:00:00 -0.6 4 Noroeste 10 Noroeste 0 -- -- 69
2021-01-06 02:00:00 0.1 3 Oeste 12 Noroeste 0 -- -- 69
2021-01-06 01:00:00 0.4 2 Oeste 18 Noroeste 0 -- -- 69
2021-01-06 00:00:00 0.4 11 Noroeste 15 Noroeste 0 -- -- 70
2021-01-05 23:00:00 0.7 9 Noroeste 12 Noroeste 0 -- -- 66
2021-01-05 22:00:00 1.1 6 Noroeste 16 Noroeste 0 -- -- 66
2021-01-05 21:00:00 0.4 9 Noroeste 14 Noroeste 0 -- -- 70
2021-01-05 20:00:00 0.5 8 Noroeste 13 Noroeste 0 -- -- 68
2021-01-05 19:00:00 1.3 8 Noroeste 12 Noroeste 0 -- -- 64
2021-01-05 18:00:00 2.3 2 Sudoeste 5 Oeste 0 -- -- 61
2021-01-05 17:00:00 4.2 0 Calma 11 Sudoeste 0 -- -- 55
2021-01-05 16:00:00 6.3 5 Sur 14 Sur 0 -- -- 51
2021-01-05 15:00:00 6.1 8 Sur 19 Sudeste 0 -- -- 51
2021-01-05 14:00:00 6 7 Sur 17 Sudeste 0 -- -- 53
2021-01-05 13:00:00 5.6 8 Sur 13 Sur 0 -- -- 54
2021-01-05 12:00:00 4.2 5 Sudeste 13 Sur 0 -- -- 64
2021-01-05 11:00:00 3 4 Sudeste 10 Sur 0 -- -- 66
2021-01-05 10:00:00 1.9 2 Sur 6 Norte 0 -- -- 63
2021-01-05 09:00:00 -1.5 4 Noroeste 14 Noroeste 0 -- -- 70
2021-01-05 08:00:00 -0.5 2 Sudoeste 5 Sudoeste 0 -- -- 64
2021-01-05 07:00:00 0.5 3 Sudoeste 10 Noroeste 0 -- -- 60
2021-01-05 06:00:00 0.4 0 Calma 9 Noroeste 0 -- -- 61
2021-01-05 05:00:00 0.8 3 Oeste 11 Noroeste 0 -- -- 60
2021-01-05 04:00:00 0.4 5 Noroeste 13 Noroeste 0 -- -- 61
2021-01-05 03:00:00 0.4 5 Noroeste 9 Noroeste 0 -- -- 62
2021-01-05 02:00:00 0.9 4 Noroeste 13 Noroeste 0 -- -- 60
2021-01-05 01:00:00 0.8 9 Noroeste 14 Noroeste 0 -- -- 58
2021-01-05 00:00:00 1.5 7 Noroeste 21 Noroeste 0 -- -- 59
2021-01-04 23:00:00 2.1 14 Noroeste 23 Norte 0 -- -- 59
2021-01-04 22:00:00 1.5 14 Noroeste 21 Noroeste 0 -- -- 64
2021-01-04 21:00:00 2.8 5 Norte 28 Norte 0 -- -- 57
2021-01-04 20:00:00 2.8 4 Noroeste 17 Norte 0 -- -- 58
2021-01-04 19:00:00 3.4 8 Noroeste 30 Norte 0 -- -- 58
2021-01-04 18:00:00 4.2 16 Noroeste 31 Noroeste 0 -- -- 56
2021-01-04 17:00:00 4.7 12 Norte 35 Noroeste 0 -- -- 55
2021-01-04 16:00:00 5.4 11 Norte 36 Noroeste 0 -- -- 53
2021-01-04 15:00:00 6.9 17 Norte 39 Noroeste 0 -- -- 48
2021-01-04 14:00:00 6.1 15 Noroeste 32 Noroeste 0 -- -- 51
2021-01-04 13:00:00 6.6 5 Nordeste 23 Norte 0 -- -- 49
2021-01-04 12:00:00 5.4 10 Norte 35 Noroeste 0 -- -- 59
2021-01-04 11:00:00 3.9 5 Sur 30 Noroeste 0 -- -- 68
2021-01-04 10:00:00 3.7 7 Sudoeste 24 Noroeste 0 -- -- 72
2021-01-04 09:00:00 2.4 5 Norte 34 Norte 0 -- -- 72
2021-01-04 08:00:00 2.8 19 Norte 30 Norte 0 -- -- 72
2021-01-04 07:00:00 2.8 16 Norte 37 Norte 0 -- -- 77
2021-01-04 06:00:00 3.1 20 Norte 39 Norte 0 -- -- 74
2021-01-04 05:00:00 3.3 25 Norte 47 Norte 0 -- -- 74
2021-01-04 04:00:00 3.2 26 Norte 45 Norte 0 -- -- 75
2021-01-04 03:00:00 3.2 26 Norte 36 Norte 0 -- -- 73
2021-01-04 02:00:00 3.3 21 Norte 42 Noroeste 0 -- -- 69
2021-01-04 01:00:00 3.3 21 Norte 33 Noroeste 0 -- -- 67
2021-01-04 00:00:00 3.1 12 Norte 28 Norte 0 -- -- 67
2021-01-03 23:00:00 3.2 8 Norte 34 Noroeste 0 -- -- 65
2021-01-03 22:00:00 3.9 16 Norte 39 Noroeste 0 -- -- 61
2021-01-03 21:00:00 3.9 14 Noroeste 28 Noroeste 0 -- -- 61
2021-01-03 20:00:00 3.9 13 Noroeste 23 Noroeste 0 -- -- 61
2021-01-03 19:00:00 4.5 5 Oeste 23 Noroeste 0 -- -- 59
2021-01-03 18:00:00 5 11 Norte 43 Norte 0 -- -- 59
2021-01-03 17:00:00 5.4 23 Norte 47 Norte 0 -- -- 58
2021-01-03 16:00:00 6.9 18 Norte 45 Norte 0 -- -- 52
2021-01-03 15:00:00 7.6 8 Norte 28 Norte 0 -- -- 48
2021-01-03 14:00:00 7.2 8 Sur 15 Sudeste 0 -- -- 57
2021-01-03 13:00:00 5.6 5 Sudoeste 15 Sur 0 -- -- 59
2021-01-03 12:00:00 5.1 8 Sur 12 Sudeste 0 -- -- 60
2021-01-03 11:00:00 4.9 5 Sur 9 Sudeste 0 -- -- 57
2021-01-03 10:00:00 2.3 2 Sudeste 8 Noroeste 0 -- -- 60
2021-01-03 09:00:00 1.2 5 Noroeste 9 Noroeste 0 -- -- 58
2021-01-03 08:00:00 0.8 2 Oeste 17 Noroeste 0 -- -- 61
2021-01-03 07:00:00 1.9 16 Noroeste 23 Noroeste 0 -- -- 56
2021-01-03 06:00:00 2.5 14 Noroeste 23 Noroeste 0 -- -- 54
2021-01-03 05:00:00 2.7 18 Noroeste 32 Noroeste 0 -- -- 55
2021-01-03 04:00:00 3.1 16 Norte 30 Noroeste 0 -- -- 53
2021-01-03 03:00:00 2.8 8 Noroeste 17 Noroeste 0 -- -- 52
2021-01-03 02:00:00 2.6 10 Noroeste 21 Oeste 0 -- -- 57
2021-01-03 01:00:00 2.2 11 Norte 22 Noroeste 0 -- -- 61
2021-01-03 00:00:00 1.8 12 Noroeste 19 Noroeste 0 -- -- 61
2021-01-02 23:00:00 1.9 9 Noroeste 17 Noroeste 0 -- -- 59
2021-01-02 22:00:00 3.2 3 Sudoeste 13 Sur 0 -- -- 54
2021-01-02 21:00:00 3.9 4 Nordeste 44 Noroeste 0 -- -- 50
2021-01-02 20:00:00 4.1 26 Norte 51 Norte 0 -- -- 49
2021-01-02 19:00:00 3.7 28 Norte 53 Noroeste 0 -- -- 49
2021-01-02 18:00:00 3.7 27 Norte 37 Noroeste 0 -- -- 49
2021-01-02 17:00:00 4.2 16 Norte 42 Nordeste 0 -- -- 49
2021-01-02 16:00:00 4.7 19 Norte 45 Nordeste 0 -- -- 48
2021-01-02 15:00:00 4.7 23 Nordeste 47 Norte 0 -- -- 47
2021-01-02 14:00:00 4.8 22 Nordeste 40 Nordeste 0 -- -- 48